Time;durP1;ratioP1;P1;durP2;ratioP2;P2;SDS_P1;SDS_P2;PMS_P1;PMS_P2;Temp;Humidity;BMP_temperature;BMP_pressure;BME280_temperature;BME280_humidity;BME280_pressure;Samples;Min_cycle;Max_cycle;Signal;HPM_P1;HPM_P2
2021/10/05 00:00:27;;;;;;;14.48;2.85;;;13.30;97.40;;;;;;5075010;28;20072;-66
2021/10/05 00:02:56;;;;;;;11.40;3.08;;;13.40;97.00;;;;;;5069923;28;20048;-66
2021/10/05 00:05:24;;;;;;;9.48;2.45;;;13.40;97.00;;;;;;5070938;28;20055;-65
2021/10/05 00:07:51;;;;;;;7.97;2.25;;;13.40;96.70;;;;;;5073162;28;20048;-67
2021/10/05 00:10:18;;;;;;;10.40;2.60;;;13.40;96.80;;;;;;5051070;28;20102;-66
2021/10/05 00:12:46;;;;;;;12.88;3.17;;;13.50;96.00;;;;;;5059523;28;20101;-67
2021/10/05 00:15:13;;;;;;;15.60;2.50;;;13.60;96.00;;;;;;5069791;28;20087;-67
2021/10/05 00:17:41;;;;;;;7.78;2.55;;;13.60;95.70;;;;;;5069801;28;20066;-67
2021/10/05 00:20:10;;;;;;;16.52;3.60;;;13.60;95.40;;;;;;5057318;28;20099;-67
2021/10/05 00:22:37;;;;;;;9.85;3.00;;;13.60;95.20;;;;;;5061109;28;20433;-67
2021/10/05 00:25:04;;;;;;;10.18;3.22;;;13.70;95.20;;;;;;5043521;28;20057;-66
2021/10/05 00:27:31;;;;;;;12.70;2.90;;;13.70;94.90;;;;;;5074093;28;20075;-67
2021/10/05 00:29:58;;;;;;;9.25;2.58;;;13.70;95.00;;;;;;5070332;28;20091;-67
2021/10/05 00:32:26;;;;;;;9.95;2.50;;;13.70;95.00;;;;;;5077610;28;20047;-67
2021/10/05 00:34:53;;;;;;;10.75;2.67;;;13.70;95.00;;;;;;5052912;28;20059;-67
2021/10/05 00:37:20;;;;;;;6.45;1.88;;;13.70;94.70;;;;;;5044264;28;20048;-66
2021/10/05 00:39:47;;;;;;;12.10;2.30;;;13.80;94.70;;;;;;5052459;28;20052;-67
2021/10/05 00:42:14;;;;;;;14.57;3.38;;;13.80;94.60;;;;;;5057935;28;20101;-67
2021/10/05 00:44:41;;;;;;;13.40;3.55;;;13.80;94.40;;;;;;5057141;28;20075;-64
2021/10/05 00:47:10;;;;;;;16.70;3.35;;;13.90;94.40;;;;;;5070402;28;20447;-66
2021/10/05 00:49:38;;;;;;;16.35;2.95;;;13.90;94.40;;;;;;5057129;28;20098;-67
2021/10/05 00:52:06;;;;;;;10.05;2.25;;;13.90;94.30;;;;;;5049739;28;20090;-67
2021/10/05 00:54:34;;;;;;;11.10;2.33;;;14.00;94.30;;;;;;5054505;28;20071;-66
2021/10/05 00:57:02;;;;;;;11.70;3.20;;;14.00;94.20;;;;;;5073624;28;20123;-67
2021/10/05 00:59:31;;;;;;;12.75;3.00;;;14.00;94.30;;;;;;5070218;28;20071;-68
2021/10/05 01:02:01;;;;;;;8.32;2.47;;;14.00;94.40;;;;;;5086409;28;20101;-66
2021/10/05 01:04:29;;;;;;;11.52;2.75;;;14.00;94.30;;;;;;5052960;28;20044;-66
2021/10/05 01:06:58;;;;;;;12.18;2.55;;;14.00;94.80;;;;;;5061508;28;20495;-68
2021/10/05 01:09:25;;;;;;;16.27;4.65;;;14.00;94.80;;;;;;5073709;28;20052;-66
2021/10/05 01:11:52;;;;;;;10.95;3.50;;;13.90;95.00;;;;;;5056100;28;20128;-67
2021/10/05 01:14:19;;;;;;;13.07;3.72;;;13.90;95.80;;;;;;5086127;28;20234;-67
2021/10/05 01:16:47;;;;;;;14.85;3.63;;;13.80;96.40;;;;;;5086579;28;20494;-67
2021/10/05 01:19:16;;;;;;;15.93;2.85;;;13.70;96.70;;;;;;5055170;28;20080;-65
2021/10/05 01:21:43;;;;;;;12.30;3.45;;;13.70;97.00;;;;;;5057140;28;20040;-67
2021/10/05 01:24:14;;;;;;;17.98;2.92;;;13.60;97.40;;;;;;5082245;28;20080;-68
2021/10/05 01:26:41;;;;;;;14.02;3.17;;;13.60;97.70;;;;;;5058883;28;20135;-68
2021/10/05 01:29:11;;;;;;;16.98;3.58;;;13.50;98.00;;;;;;5075064;28;20132;-66
2021/10/05 01:31:42;;;;;;;15.50;3.53;;;13.50;98.30;;;;;;5070844;28;20440;-65
2021/10/05 01:34:09;;;;;;;14.77;2.85;;;13.50;98.70;;;;;;5069387;28;20123;-67
2021/10/05 01:36:37;;;;;;;20.70;3.83;;;13.40;98.80;;;;;;5055064;28;20138;-66
2021/10/05 01:39:19;;;;;;;10.77;3.65;;;13.40;99.00;;;;;;5042229;28;20060;-67
2021/10/05 01:41:46;;;;;;;16.80;3.95;;;13.40;99.50;;;;;;5061530;28;20040;-66
2021/10/05 01:44:13;;;;;;;14.68;3.22;;;13.40;99.50;;;;;;5063069;28;20056;-66
2021/10/05 01:46:40;;;;;;;11.80;2.63;;;13.30;99.70;;;;;;5054700;28;20046;-66
2021/10/05 01:49:07;;;;;;;11.90;3.28;;;13.40;99.60;;;;;;5054285;28;20052;-67
2021/10/05 01:51:34;;;;;;;11.88;2.70;;;13.30;99.70;;;;;;5072767;28;20127;-67
2021/10/05 01:54:01;;;;;;;17.25;3.08;;;13.30;99.80;;;;;;5053700;28;20046;-67
2021/10/05 01:56:28;;;;;;;12.20;3.20;;;13.40;99.70;;;;;;5057912;28;20135;-67
2021/10/05 01:58:55;;;;;;;7.70;2.70;;;13.40;99.90;;;;;;5065783;28;20048;-67
2021/10/05 02:01:21;;;;;;;9.77;2.88;;;13.30;99.90;;;;;;5073160;28;20075;-68
2021/10/05 02:03:49;;;;;;;10.13;2.92;;;13.40;99.90;;;;;;5072889;28;20044;-67
2021/10/05 02:06:16;;;;;;;14.15;2.78;;;13.40;99.90;;;;;;5074641;28;20095;-68
2021/10/05 02:08:43;;;;;;;10.95;2.58;;;13.40;99.90;;;;;;5069650;28;21758;-66
2021/10/05 02:11:09;;;;;;;18.58;2.90;;;13.40;99.90;;;;;;5065777;28;20095;-66
2021/10/05 02:13:37;;;;;;;14.20;3.30;;;13.40;99.90;;;;;;5043133;28;20075;-66
2021/10/05 02:16:04;;;;;;;11.20;2.65;;;13.40;99.90;;;;;;5070689;28;20068;-67
2021/10/05 02:18:31;;;;;;;10.40;2.92;;;13.40;99.90;;;;;;5054442;28;20097;-66
2021/10/05 02:20:58;;;;;;;16.00;3.28;;;13.40;99.90;;;;;;5055655;28;20546;-66
2021/10/05 02:23:30;;;;;;;14.90;3.13;;;13.40;99.90;;;;;;5064642;28;20051;-66
2021/10/05 02:25:57;;;;;;;12.60;3.33;;;13.40;99.90;;;;;;5064799;28;20044;-67
2021/10/05 02:28:24;;;;;;;9.40;3.83;;;13.40;99.90;;;;;;5060778;28;20478;-67
2021/10/05 02:30:51;;;;;;;9.75;2.50;;;13.40;99.90;;;;;;5078823;28;20072;-66
2021/10/05 02:33:19;;;;;;;8.35;2.13;;;13.40;99.90;;;;;;5073461;28;20528;-67
2021/10/05 02:35:46;;;;;;;11.70;2.72;;;13.40;99.90;;;;;;5071061;28;20045;-66
2021/10/05 02:38:13;;;;;;;6.93;2.20;;;13.40;99.90;;;;;;5064567;28;20087;-66
2021/10/05 02:40:40;;;;;;;12.18;3.53;;;13.40;99.90;;;;;;5058065;28;20044;-67
2021/10/05 02:43:07;;;;;;;8.88;2.08;;;13.40;99.90;;;;;;5081803;28;20143;-66
2021/10/05 02:45:35;;;;;;;6.40;2.03;;;13.40;99.90;;;;;;5063759;28;20143;-67
2021/10/05 02:48:02;;;;;;;5.72;2.13;;;13.40;99.90;;;;;;5071937;28;20131;-67
2021/10/05 02:50:29;;;;;;;5.72;1.90;;;13.40;99.90;;;;;;5063716;28;20044;-66
2021/10/05 02:52:56;;;;;;;8.52;2.25;;;13.40;99.90;;;;;;5071066;28;20059;-67
2021/10/05 02:55:23;;;;;;;14.85;2.50;;;13.40;99.90;;;;;;5060457;28;20051;-66
2021/10/05 02:57:50;;;;;;;10.05;1.88;;;13.40;99.90;;;;;;5085953;28;20141;-66
2021/10/05 03:00:17;;;;;;;6.45;2.13;;;13.40;99.90;;;;;;5080716;28;20097;-65
2021/10/05 03:02:45;;;;;;;5.03;1.80;;;13.40;99.90;;;;;;5070392;28;20555;-66
2021/10/05 03:05:12;;;;;;;6.05;1.85;;;13.40;99.90;;;;;;5072581;28;20044;-66
2021/10/05 03:07:39;;;;;;;5.35;2.03;;;13.40;99.90;;;;;;5062042;28;20119;-66
2021/10/05 03:10:06;;;;;;;4.72;1.50;;;13.40;99.90;;;;;;5069910;28;20540;-66
2021/10/05 03:12:33;;;;;;;7.07;1.75;;;13.40;99.90;;;;;;5055106;28;20388;-67
2021/10/05 03:15:00;;;;;;;5.78;1.80;;;13.50;99.90;;;;;;5051749;28;20080;-67
2021/10/05 03:17:27;;;;;;;6.70;1.63;;;13.40;99.90;;;;;;5080252;28;20052;-67
2021/10/05 03:19:54;;;;;;;5.45;1.50;;;13.50;99.90;;;;;;5069816;28;20048;-68
2021/10/05 03:22:21;;;;;;;3.35;1.10;;;13.50;99.90;;;;;;5058119;28;20044;-66
2021/10/05 03:24:48;;;;;;;7.22;2.08;;;13.50;99.90;;;;;;5077357;28;20040;-66
2021/10/05 03:27:15;;;;;;;7.80;1.92;;;13.50;99.90;;;;;;5075090;28;20045;-69
2021/10/05 03:29:42;;;;;;;3.35;1.33;;;13.50;99.90;;;;;;5050103;28;20076;-67
2021/10/05 03:32:09;;;;;;;4.22;1.30;;;13.50;99.90;;;;;;5072763;28;20040;-67
2021/10/05 03:34:37;;;;;;;5.32;1.30;;;13.50;99.90;;;;;;5075339;28;20072;-67
2021/10/05 03:37:05;;;;;;;3.88;1.42;;;13.50;99.90;;;;;;5057252;28;20059;-67
2021/10/05 03:39:32;;;;;;;5.03;1.48;;;13.50;99.90;;;;;;5063145;28;20100;-67
2021/10/05 03:41:59;;;;;;;3.88;1.85;;;13.50;99.90;;;;;;5063245;28;20126;-66
2021/10/05 03:44:26;;;;;;;3.00;0.90;;;13.50;99.90;;;;;;5072740;28;20056;-66
2021/10/05 03:46:53;;;;;;;3.17;1.10;;;13.50;99.90;;;;;;5081582;28;20052;-66
2021/10/05 03:49:20;;;;;;;6.32;1.30;;;13.50;99.90;;;;;;5073543;28;20048;-69
2021/10/05 03:51:47;;;;;;;4.00;1.38;;;13.50;99.90;;;;;;5062331;28;20147;-68
2021/10/05 03:54:14;;;;;;;1.58;0.70;;;13.50;99.90;;;;;;5052864;28;20151;-69
2021/10/05 03:56:41;;;;;;;2.03;0.82;;;13.50;99.90;;;;;;5076625;28;20088;-68
2021/10/05 03:59:08;;;;;;;2.53;1.13;;;13.40;99.90;;;;;;5078312;28;20068;-68
2021/10/05 04:01:35;;;;;;;3.25;1.10;;;13.30;99.70;;;;;;5080303;28;20554;-67
2021/10/05 04:04:02;;;;;;;3.45;0.95;;;13.20;99.50;;;;;;5085274;28;20424;-68
2021/10/05 04:06:29;;;;;;;2.45;0.70;;;13.10;99.90;;;;;;5069294;28;20061;-69
2021/10/05 04:08:56;;;;;;;1.10;0.80;;;13.00;99.90;;;;;;5083906;28;20143;-68
2021/10/05 04:11:23;;;;;;;1.95;0.93;;;12.90;99.90;;;;;;5052020;28;20049;-68
2021/10/05 04:13:50;;;;;;;3.35;1.10;;;12.90;99.90;;;;;;5053560;28;20045;-69
2021/10/05 04:16:17;;;;;;;2.65;0.90;;;13.00;99.90;;;;;;5058037;28;20051;-68
2021/10/05 04:18:44;;;;;;;1.60;0.88;;;13.00;99.90;;;;;;5063539;28;20249;-68
2021/10/05 04:21:11;;;;;;;5.70;0.98;;;12.90;99.90;;;;;;5058056;28;20045;-68
2021/10/05 04:23:38;;;;;;;1.90;0.90;;;12.90;99.90;;;;;;5054295;28;20098;-68
2021/10/05 04:26:05;;;;;;;3.60;1.20;;;12.90;99.90;;;;;;5045150;28;20525;-68
2021/10/05 04:28:31;;;;;;;4.68;1.23;;;12.90;99.90;;;;;;5077596;28;20050;-68
2021/10/05 04:30:58;;;;;;;6.05;1.88;;;12.90;99.90;;;;;;5056408;28;20047;-68
2021/10/05 04:33:25;;;;;;;3.47;0.88;;;12.90;99.90;;;;;;5084663;28;20047;-68
2021/10/05 04:35:52;;;;;;;3.70;1.10;;;12.90;99.90;;;;;;5077008;28;20041;-68
2021/10/05 04:38:19;;;;;;;5.30;1.35;;;12.90;99.90;;;;;;5088923;28;20096;-71
2021/10/05 04:40:46;;;;;;;5.55;1.15;;;12.90;99.90;;;;;;5077227;28;20135;-68
2021/10/05 04:43:13;;;;;;;2.75;1.30;;;12.80;99.90;;;;;;5074911;28;20091;-67
2021/10/05 04:45:40;;;;;;;4.75;1.02;;;12.90;99.90;;;;;;5074191;28;20058;-68
2021/10/05 04:48:07;;;;;;;4.78;1.90;;;12.90;99.90;;;;;;5040182;28;20048;-68
2021/10/05 04:50:35;;;;;;;6.57;1.92;;;12.80;99.90;;;;;;5052889;28;20060;-68
2021/10/05 04:53:02;;;;;;;3.50;1.25;;;12.80;99.90;;;;;;5056275;28;20868;-68
2021/10/05 04:55:29;;;;;;;3.20;1.20;;;12.80;99.90;;;;;;5040655;28;20143;-68
2021/10/05 04:57:57;;;;;;;4.00;1.00;;;12.80;99.90;;;;;;5062222;28;20044;-68
2021/10/05 05:00:24;;;;;;;3.72;1.92;;;12.80;99.90;;;;;;5074448;28;20132;-68
2021/10/05 05:02:51;;;;;;;3.85;1.27;;;12.70;99.90;;;;;;5074470;28;20128;-68
2021/10/05 05:05:20;;;;;;;2.55;1.10;;;12.70;99.90;;;;;;5060203;28;20060;-71
2021/10/05 05:07:47;;;;;;;3.35;1.33;;;12.70;99.90;;;;;;5046372;28;20059;-69
2021/10/05 05:10:14;;;;;;;4.05;1.60;;;12.70;99.90;;;;;;5056318;28;20168;-68
2021/10/05 05:12:41;;;;;;;5.53;1.50;;;12.70;99.90;;;;;;5060713;28;20132;-68
2021/10/05 05:15:08;;;;;;;6.70;1.25;;;12.70;99.90;;;;;;5055180;28;20059;-67
2021/10/05 05:17:35;;;;;;;9.18;1.55;;;12.70;99.90;;;;;;5056032;28;20407;-68
2021/10/05 05:20:02;;;;;;;6.63;1.35;;;12.70;99.90;;;;;;5071728;28;20072;-67
2021/10/05 05:22:29;;;;;;;4.72;1.30;;;12.70;99.90;;;;;;5059173;28;20060;-68
2021/10/05 05:24:56;;;;;;;4.80;1.95;;;12.70;99.90;;;;;;5060765;28;20045;-68
2021/10/05 05:27:23;;;;;;;2.60;1.20;;;12.60;99.90;;;;;;5040571;28;20102;-67
2021/10/05 05:29:51;;;;;;;4.90;1.45;;;12.60;99.90;;;;;;5059793;28;20546;-67
2021/10/05 05:32:18;;;;;;;2.72;1.20;;;12.60;99.90;;;;;;5063874;28;20479;-67
2021/10/05 05:34:45;;;;;;;5.13;1.30;;;12.60;99.90;;;;;;5075290;28;20551;-68
2021/10/05 05:37:12;;;;;;;8.65;1.00;;;12.60;99.90;;;;;;5044776;28;20087;-67
2021/10/05 05:39:42;;;;;;;5.45;1.35;;;12.50;99.90;;;;;;5074544;28;20052;-69
2021/10/05 05:42:10;;;;;;;5.32;1.10;;;12.50;99.90;;;;;;5081810;28;20056;-67
2021/10/05 05:44:38;;;;;;;7.63;1.35;;;12.50;99.90;;;;;;5065100;28;20044;-68
2021/10/05 05:47:05;;;;;;;4.53;1.25;;;12.50;99.90;;;;;;5068632;28;20423;-67
2021/10/05 05:49:32;;;;;;;9.38;1.30;;;12.50;99.90;;;;;;5071159;28;20157;-62
2021/10/05 05:51:59;;;;;;;30.42;24.67;;;12.40;99.90;;;;;;5051767;28;20155;-65
2021/10/05 05:54:26;;;;;;;70.60;54.38;;;12.40;99.90;;;;;;5086392;28;20048;-72
2021/10/05 05:56:53;;;;;;;26.38;17.45;;;12.40;99.90;;;;;;5057193;28;20131;-72
2021/10/05 05:59:23;;;;;;;11.32;4.70;;;12.40;99.90;;;;;;5057969;28;20044;-69
2021/10/05 06:01:50;;;;;;;8.18;2.40;;;12.40;99.90;;;;;;5072269;28;20045;-71
2021/10/05 06:04:17;;;;;;;5.38;1.60;;;12.40;99.90;;;;;;5053527;28;20488;-71
2021/10/05 06:06:44;;;;;;;6.28;2.85;;;12.30;99.90;;;;;;5048728;28;20056;-66
2021/10/05 06:09:12;;;;;;;100.43;66.35;;;12.30;99.90;;;;;;5071436;28;20057;-69
2021/10/05 06:11:41;;;;;;;22.73;11.70;;;12.30;99.90;;;;;;5064919;28;20407;-69
2021/10/05 06:14:08;;;;;;;6.22;2.63;;;12.20;99.90;;;;;;5068449;28;20072;-69
2021/10/05 06:16:35;;;;;;;6.65;2.30;;;12.20;99.90;;;;;;5063259;28;20080;-69
2021/10/05 06:19:06;;;;;;;7.35;2.72;;;12.20;99.90;;;;;;5059477;28;20052;-69
2021/10/05 06:21:33;;;;;;;11.07;1.50;;;12.10;99.90;;;;;;5070832;28;20142;-69
2021/10/05 06:24:00;;;;;;;12.45;4.90;;;12.10;99.90;;;;;;5053901;28;20162;-72
2021/10/05 06:26:27;;;;;;;10.52;4.88;;;12.00;99.90;;;;;;5072530;28;20135;-78
2021/10/05 06:28:54;;;;;;;10.70;3.05;;;12.00;99.90;;;;;;5060017;28;20055;-71
2021/10/05 06:31:21;;;;;;;9.10;2.38;;;11.90;99.90;;;;;;5070789;28;20048;-72
2021/10/05 06:33:48;;;;;;;8.73;2.80;;;11.90;99.90;;;;;;5033749;28;20052;-68
2021/10/05 06:36:15;;;;;;;5.85;2.05;;;11.80;99.90;;;;;;5074603;28;20083;-69
2021/10/05 06:38:42;;;;;;;9.70;3.03;;;11.80;99.90;;;;;;5074785;28;20085;-69
2021/10/05 06:41:09;;;;;;;6.55;2.65;;;11.70;99.90;;;;;;5063638;28;20127;-69
2021/10/05 06:43:36;;;;;;;9.45;2.13;;;11.70;99.90;;;;;;5050180;28;20052;-70
2021/10/05 06:46:03;;;;;;;9.88;2.30;;;11.60;99.90;;;;;;5057083;28;20041;-69
2021/10/05 06:48:30;;;;;;;11.50;2.75;;;11.60;99.90;;;;;;5063150;28;20048;-69
2021/10/05 06:50:57;;;;;;;9.45;2.33;;;11.60;99.90;;;;;;5056659;28;20436;-68
2021/10/05 06:53:24;;;;;;;7.28;2.42;;;11.50;99.90;;;;;;5038108;28;20500;-68
2021/10/05 06:55:51;;;;;;;3.60;1.60;;;11.50;99.90;;;;;;5061444;28;20135;-74
2021/10/05 06:58:18;;;;;;;57.53;41.78;;;11.50;99.90;;;;;;5056565;28;20518;-69
2021/10/05 07:00:45;;;;;;;18.98;11.65;;;11.40;99.90;;;;;;5055524;28;20423;-70
2021/10/05 07:03:12;;;;;;;8.52;3.30;;;11.40;99.90;;;;;;5075318;28;20045;-69
2021/10/05 07:05:40;;;;;;;6.90;1.50;;;11.40;99.90;;;;;;5051959;28;20045;-69
2021/10/05 07:08:07;;;;;;;7.30;1.55;;;11.40;99.90;;;;;;5070687;28;20041;-69
2021/10/05 07:10:35;;;;;;;9.75;2.33;;;11.40;99.90;;;;;;5070892;28;20084;-69
2021/10/05 07:13:02;;;;;;;7.55;2.00;;;11.30;99.90;;;;;;5033101;28;20114;-63
2021/10/05 07:15:29;;;;;;;6.90;1.70;;;11.30;99.90;;;;;;5053191;28;20132;-63
2021/10/05 07:17:56;;;;;;;6.88;2.33;;;11.30;99.90;;;;;;5072797;28;20102;-63
2021/10/05 07:20:25;;;;;;;9.25;2.38;;;11.30;99.90;;;;;;5065152;28;20052;-64
2021/10/05 07:22:55;;;;;;;11.05;2.40;;;11.30;99.90;;;;;;5073856;28;20047;-63
2021/10/05 07:25:23;;;;;;;7.65;2.25;;;11.30;99.90;;;;;;5054248;28;20048;-60
2021/10/05 07:27:51;;;;;;;12.77;2.70;;;11.20;99.90;;;;;;5067131;28;20041;-59
2021/10/05 07:30:23;;;;;;;11.30;2.50;;;11.20;99.90;;;;;;5063486;28;20079;-60
2021/10/05 07:32:55;;;;;;;12.68;2.50;;;11.20;99.90;;;;;;5054819;28;20089;-60
2021/10/05 07:35:23;;;;;;;9.05;2.38;;;11.20;99.90;;;;;;5037148;28;20101;-62
2021/10/05 07:37:51;;;;;;;4.28;2.45;;;11.30;99.90;;;;;;5078038;28;20075;-64
2021/10/05 07:40:20;;;;;;;20.02;13.27;;;11.30;99.90;;;;;;5066079;28;20126;-68
2021/10/05 07:42:52;;;;;;;15.98;8.13;;;11.30;99.90;;;;;;5066297;28;20517;-70
2021/10/05 07:45:20;;;;;;;6.82;2.95;;;11.40;99.90;;;;;;5058035;28;20048;-69
2021/10/05 07:47:47;;;;;;;11.73;2.47;;;11.40;99.90;;;;;;5070372;28;20044;-69
2021/10/05 07:50:14;;;;;;;8.85;1.98;;;11.40;99.90;;;;;;5018865;28;20105;-69
2021/10/05 07:52:41;;;;;;;20.50;11.10;;;11.40;99.90;;;;;;5051195;28;20045;-69
2021/10/05 07:55:09;;;;;;;70.90;55.60;;;11.40;99.90;;;;;;5052981;28;20377;-70
2021/10/05 07:57:36;;;;;;;106.00;90.03;;;11.40;99.90;;;;;;5053212;28;20092;-70
2021/10/05 08:00:07;;;;;;;15.98;5.70;;;11.50;99.80;;;;;;5081431;28;20152;-70
2021/10/05 08:02:34;;;;;;;6.60;2.50;;;11.50;99.70;;;;;;5052648;28;20082;-69
2021/10/05 08:05:02;;;;;;;7.75;2.17;;;11.50;99.40;;;;;;5040638;28;20052;-70
2021/10/05 08:07:29;;;;;;;9.23;2.28;;;11.50;99.80;;;;;;5055927;28;20048;-69
2021/10/05 08:09:56;;;;;;;11.52;2.28;;;11.50;98.50;;;;;;5070802;28;20459;-69
2021/10/05 08:12:24;;;;;;;8.13;1.80;;;11.50;99.30;;;;;;5033133;28;20123;-69
2021/10/05 08:14:52;;;;;;;7.80;2.08;;;11.60;99.10;;;;;;5061117;28;20544;-69
2021/10/05 08:17:19;;;;;;;5.13;1.75;;;11.60;99.30;;;;;;5077268;28;20062;-69
2021/10/05 08:19:47;;;;;;;4.35;1.65;;;11.60;98.80;;;;;;5058251;28;20055;-69
2021/10/05 08:22:15;;;;;;;4.90;1.80;;;11.60;99.00;;;;;;5067811;28;20044;-69
2021/10/05 08:24:42;;;;;;;7.00;1.70;;;11.60;98.80;;;;;;5084953;28;20051;-70
2021/10/05 08:27:09;;;;;;;8.38;2.08;;;11.60;99.20;;;;;;5064650;28;20147;-63
2021/10/05 08:29:40;;;;;;;12.15;2.08;;;11.70;99.20;;;;;;5060775;28;20474;-62
2021/10/05 08:32:07;;;;;;;8.15;2.03;;;11.70;98.20;;;;;;5071810;28;20044;-62
2021/10/05 08:34:34;;;;;;;11.23;3.90;;;11.80;98.60;;;;;;5065362;28;20465;-61
2021/10/05 08:37:01;;;;;;;8.95;2.83;;;11.80;97.90;;;;;;5051580;28;20106;-61
2021/10/05 08:39:28;;;;;;;8.57;2.10;;;11.90;98.00;;;;;;5068830;28;20480;-62
2021/10/05 08:41:55;;;;;;;4.65;1.80;;;11.90;97.80;;;;;;5070588;28;20552;-62
2021/10/05 08:44:24;;;;;;;6.50;1.75;;;12.00;98.00;;;;;;5068550;28;20145;-62
2021/10/05 08:46:52;;;;;;;6.07;2.03;;;12.00;97.00;;;;;;5054959;28;20053;-62
2021/10/05 08:49:20;;;;;;;8.10;2.50;;;12.00;97.10;;;;;;5076883;28;20048;-63
2021/10/05 08:51:47;;;;;;;5.78;2.38;;;12.10;97.90;;;;;;5052222;28;20399;-62
2021/10/05 08:54:14;;;;;;;7.65;1.98;;;12.10;96.60;;;;;;5044307;28;20140;-62
2021/10/05 08:56:42;;;;;;;6.60;2.13;;;12.10;96.30;;;;;;5052919;28;20040;-61
2021/10/05 08:59:10;;;;;;;4.13;2.45;;;12.10;96.80;;;;;;5054532;28;20135;-61
2021/10/05 09:01:37;;;;;;;9.05;1.92;;;12.20;96.90;;;;;;5048984;28;20589;-62
2021/10/05 09:04:05;;;;;;;9.80;2.45;;;12.20;97.70;;;;;;5051172;28;20225;-62
2021/10/05 09:06:32;;;;;;;8.27;2.40;;;12.20;96.50;;;;;;5064669;28;20126;-61
2021/10/05 09:09:02;;;;;;;7.85;2.35;;;12.30;96.50;;;;;;5048438;28;20147;-63
2021/10/05 09:11:53;;;;;;;4.70;1.63;;;12.40;96.50;;;;;;5032035;28;20538;-63
2021/10/05 09:14:20;;;;;;;3.97;1.55;;;12.40;95.90;;;;;;5060091;28;20065;-63
2021/10/05 09:16:47;;;;;;;6.60;1.63;;;12.50;96.80;;;;;;5073324;28;20079;-62
2021/10/05 09:19:17;;;;;;;6.38;2.22;;;12.50;95.10;;;;;;5040263;28;20048;-64
2021/10/05 09:21:47;;;;;;;;;;;12.40;95.60;;;;;;5055435;28;20531;-64
2021/10/05 09:24:32;;;;;;;2.80;1.55;;;12.40;94.40;;;;;;5075662;28;19981;-63
2021/10/05 09:27:03;;;;;;;3.40;1.30;;;12.30;95.00;;;;;;5080586;28;20488;-70
2021/10/05 09:29:32;;;;;;;4.53;1.58;;;12.30;94.60;;;;;;5042338;28;20040;-69
2021/10/05 09:32:07;;;;;;;6.40;1.60;;;12.20;95.00;;;;;;5072863;28;20076;-70
2021/10/05 09:34:35;;;;;;;46.90;32.45;;;12.20;95.70;;;;;;5043768;28;20399;-71
2021/10/05 09:37:13;;;;;;;28.85;22.23;;;12.20;95.40;;;;;;5062490;28;20099;-73
2021/10/05 09:39:52;;;;;;;5.68;2.45;;;12.20;95.80;;;;;;5086062;28;20072;-68
2021/10/05 09:42:23;;;;;;;4.28;2.17;;;12.30;94.50;;;;;;5056824;28;20048;-69
2021/10/05 09:44:56;;;;;;;3.10;1.60;;;12.30;94.60;;;;;;5057307;28;20040;-69
2021/10/05 09:47:46;;;;;;;4.00;1.95;;;12.30;94.00;;;;;;5076104;28;20044;-69
2021/10/05 09:50:28;;;;;;;3.42;1.60;;;12.30;94.30;;;;;;5058350;28;20102;-69
2021/10/05 09:52:56;;;;;;;3.83;1.48;;;12.40;93.90;;;;;;5058471;28;20143;-69
2021/10/05 09:55:25;;;;;;;3.03;1.60;;;12.30;93.20;;;;;;5093300;28;20050;-69
2021/10/05 09:57:52;;;;;;;4.73;1.60;;;12.40;92.70;;;;;;5047586;28;20057;-69
2021/10/05 10:00:21;;;;;;;5.28;2.33;;;12.40;93.40;;;;;;5054781;28;20368;-65
2021/10/05 10:02:48;;;;;;;4.43;1.60;;;12.50;93.00;;;;;;5054774;28;20452;-65
2021/10/05 10:05:17;;;;;;;2.58;1.30;;;12.50;92.50;;;;;;5054193;28;20144;-65
2021/10/05 10:07:46;;;;;;;3.92;1.50;;;12.50;92.20;;;;;;5037814;28;20048;-64
2021/10/05 10:10:24;;;;;;;;;;;12.40;91.60;;;;;;5055204;28;20626;-65
2021/10/05 10:12:52;;;;;;;4.13;2.03;;;12.50;92.40;;;;;;5064688;28;20312;-65
2021/10/05 10:15:25;;;;;;;2.92;1.42;;;12.50;92.90;;;;;;5070758;28;20048;-64
2021/10/05 10:18:09;;;;;;;122.75;100.60;;;12.60;93.20;;;;;;5060199;28;20119;-63
2021/10/05 10:20:38;;;;;;;17.40;9.98;;;12.80;93.00;;;;;;5057659;28;20151;-65
2021/10/05 10:23:22;;;;;;;4.13;2.30;;;12.90;92.60;;;;;;5070583;28;20125;-65
2021/10/05 10:26:01;;;;;;;5.22;1.45;;;13.00;91.10;;;;;;5091011;28;20134;-64
2021/10/05 10:28:33;;;;;;;2.95;1.48;;;13.00;91.70;;;;;;5066895;28;20064;-64
2021/10/05 10:31:02;;;;;;;3.45;1.40;;;13.00;91.40;;;;;;5072242;28;20476;-65
2021/10/05 10:33:46;;;;;;;1.58;1.10;;;13.00;91.90;;;;;;5053995;28;20146;-65
2021/10/05 10:36:17;;;;;;;3.33;1.55;;;13.00;91.50;;;;;;5081418;28;20050;-65
2021/10/05 10:38:45;;;;;;;5.53;1.55;;;13.00;91.70;;;;;;5091961;28;20472;-66
2021/10/05 10:41:18;;;;;;;3.88;1.80;;;13.00;91.80;;;;;;5074466;28;20048;-68
2021/10/05 10:44:03;;;;;;;3.00;1.15;;;13.00;91.90;;;;;;5069782;28;20124;-66
2021/10/05 10:46:33;;;;;;;2.88;1.30;;;13.00;91.20;;;;;;5056791;28;20096;-71
2021/10/05 10:49:00;;;;;;;2.88;1.15;;;13.00;91.10;;;;;;5083978;28;20524;-66
2021/10/05 10:51:28;;;;;;;2.40;1.30;;;13.00;92.20;;;;;;5063998;28;20123;-65
2021/10/05 10:53:57;;;;;;;2.90;1.20;;;13.00;91.40;;;;;;5046342;28;20134;-66
2021/10/05 10:56:31;;;;;;;3.15;1.30;;;13.00;91.80;;;;;;5055700;28;20044;-69
2021/10/05 10:58:59;;;;;;;3.13;2.17;;;13.00;91.60;;;;;;5045604;28;20101;-68
2021/10/05 11:01:48;;;;;;;3.95;1.50;;;13.00;92.40;;;;;;5067928;28;20549;-74
2021/10/05 11:04:16;;;;;;;1.98;1.23;;;13.10;91.20;;;;;;5042985;28;20040;-68
2021/10/05 11:06:44;;;;;;;4.00;1.10;;;13.10;90.70;;;;;;5039753;28;20137;-63
2021/10/05 11:09:14;;;;;;;6.65;1.15;;;13.00;92.10;;;;;;5048552;28;20048;-66
2021/10/05 11:11:49;;;;;;;3.03;1.83;;;13.00;90.70;;;;;;5033410;28;20370;-63
2021/10/05 11:14:20;;;;;;;2.90;1.25;;;13.00;91.90;;;;;;5051233;28;20102;-65
2021/10/05 11:16:55;;;;;;;3.38;1.33;;;12.90;91.30;;;;;;5089261;28;20044;-63
2021/10/05 11:19:26;;;;;;;3.90;1.23;;;12.90;91.90;;;;;;5065244;28;20136;-63
2021/10/05 11:21:53;;;;;;;3.15;1.10;;;12.90;91.60;;;;;;5052614;28;20095;-64
2021/10/05 11:24:19;;;;;;;4.20;1.38;;;12.90;92.60;;;;;;5070759;28;20080;-63
2021/10/05 11:26:50;;;;;;;5.00;1.30;;;12.90;90.60;;;;;;5053211;28;20071;-63
2021/10/05 11:29:25;;;;;;;2.80;1.25;;;13.00;91.10;;;;;;5046649;28;20057;-64
2021/10/05 11:31:58;;;;;;;2.28;1.40;;;13.10;90.90;;;;;;5052078;28;20491;-63
2021/10/05 11:34:25;;;;;;;2.53;1.40;;;13.20;92.20;;;;;;5051754;28;20068;-66
2021/10/05 11:36:52;;;;;;;4.20;1.40;;;13.30;90.80;;;;;;5070938;28;20400;-67
2021/10/05 11:39:21;;;;;;;2.53;1.30;;;13.40;90.70;;;;;;5047298;28;20048;-67
2021/10/05 11:41:50;;;;;;;7.60;2.30;;;13.40;90.60;;;;;;5075440;28;20396;-68
2021/10/05 11:44:19;;;;;;;12.70;9.73;;;13.40;90.40;;;;;;5067575;28;20045;-70
2021/10/05 11:46:57;;;;;;;2.22;1.58;;;13.40;90.40;;;;;;5076749;28;20400;-67
2021/10/05 11:49:27;;;;;;;3.38;1.80;;;13.50;91.70;;;;;;5042740;28;20044;-67
2021/10/05 11:51:55;;;;;;;5.00;1.40;;;13.60;90.10;;;;;;5035839;28;20083;-67
2021/10/05 11:54:30;;;;;;;2.75;1.30;;;13.60;89.50;;;;;;5070371;28;20052;-67
2021/10/05 11:56:58;;;;;;;2.35;1.23;;;13.70;90.40;;;;;;5044551;28;20165;-67
2021/10/05 11:59:29;;;;;;;2.72;1.00;;;13.70;88.90;;;;;;5065059;28;20117;-67
2021/10/05 12:02:01;;;;;;;1.77;1.00;;;13.70;88.10;;;;;;5051626;28;20492;-67
2021/10/05 12:04:28;;;;;;;3.58;1.10;;;13.60;90.30;;;;;;5053922;28;20057;-68
2021/10/05 12:07:09;;;;;;;3.03;1.23;;;13.50;91.00;;;;;;5068843;28;20636;-67
2021/10/05 12:09:37;;;;;;;1.80;0.98;;;13.40;91.80;;;;;;5069878;28;20124;-67
2021/10/05 12:12:04;;;;;;;2.90;1.27;;;13.30;91.90;;;;;;5051554;28;20420;-67
2021/10/05 12:14:35;;;;;;;2.95;1.65;;;13.20;93.00;;;;;;5069535;28;20094;-67
2021/10/05 12:17:11;;;;;;;2.85;1.20;;;13.30;92.30;;;;;;5037399;28;20078;-68
2021/10/05 12:19:43;;;;;;;2.22;1.30;;;13.30;92.70;;;;;;5051638;28;20090;-67
2021/10/05 12:22:10;;;;;;;3.50;1.40;;;13.40;92.60;;;;;;5052161;28;20151;-67
2021/10/05 12:24:42;;;;;;;2.83;1.23;;;13.30;92.60;;;;;;5035206;28;20287;-65
2021/10/05 12:27:14;;;;;;;5.97;1.92;;;13.30;92.70;;;;;;5051485;28;20051;-68
2021/10/05 12:29:49;;;;;;;2.45;0.95;;;13.30;92.40;;;;;;5051956;28;20549;-68
2021/10/05 12:32:16;;;;;;;3.17;1.60;;;13.40;92.10;;;;;;5052188;28;20059;-68
2021/10/05 12:34:50;;;;;;;2.72;1.40;;;13.50;91.90;;;;;;5051633;28;20486;-68
2021/10/05 12:37:18;;;;;;;2.38;1.00;;;13.60;91.30;;;;;;5068418;28;20048;-67
2021/10/05 12:40:01;;;;;;;3.33;1.17;;;13.70;91.60;;;;;;5069348;28;20389;-68
2021/10/05 12:42:44;;;;;;;2.33;1.05;;;13.90;91.10;;;;;;5051818;28;20052;-67
2021/10/05 12:45:12;;;;;;;5.53;1.30;;;13.90;90.20;;;;;;5054378;28;20048;-68
2021/10/05 12:48:09;;;;;;;3.13;1.40;;;14.00;90.80;;;;;;5038640;28;20056;-67
2021/10/05 12:50:40;;;;;;;2.55;0.90;;;14.10;90.60;;;;;;5055867;28;20131;-67